Terminal Aerodrome Forecast
Issued by NWS

Home | Current Version | Previous Version | Text Only | Print | Product List | Glossary On
Versions: 1 2 3 4 5 6 7 8 9 10 11 12 13 14 15 16 17 18 19 20 21
000
FTUS41 KPBZ 280500
TAFDUJ
TAF
KDUJ 280535Z 2806/2906 31004KT P6SM SCT250
      TEMPO 2808/2812 4SM BR=

USA.gov is the U.S. government's official web portal to all federal, state and local government web resources and services.